createdAt,value
2022-09-20T00:02:32.873Z,11.52
2022-09-20T00:05:08.800Z,11.60
2022-09-20T00:07:37.824Z,11.62
2022-09-20T00:10:09.173Z,11.65
2022-09-20T00:12:40.212Z,11.62
2022-09-20T00:15:13.406Z,11.61
2022-09-20T00:17:42.517Z,11.63
2022-09-20T00:20:11.496Z,11.66
2022-09-20T00:22:40.487Z,11.57
2022-09-20T00:25:09.992Z,11.65
2022-09-20T00:27:41.342Z,11.53
2022-09-20T00:30:14.328Z,11.61
2022-09-20T00:32:43.628Z,11.64
2022-09-20T00:35:12.622Z,11.63
2022-09-20T00:37:43.875Z,11.66
2022-09-20T00:40:18.674Z,11.68
2022-09-20T00:42:51.479Z,11.61
2022-09-20T00:45:22.636Z,11.60
2022-09-20T00:47:57.655Z,11.63
2022-09-20T00:50:41.713Z,11.62
2022-09-20T00:53:30.154Z,11.63
2022-09-20T00:56:36.216Z,11.65
2022-09-20T00:59:38.591Z,11.68
2022-09-20T01:02:23.390Z,11.64
2022-09-20T01:04:52.455Z,11.74
2022-09-20T01:07:23.085Z,11.71
2022-09-20T01:09:55.150Z,11.66
2022-09-20T01:12:28.240Z,11.52
2022-09-20T01:14:58.869Z,11.44
2022-09-20T01:17:35.441Z,11.48
2022-09-20T01:20:21.024Z,11.58
2022-09-20T01:23:29.030Z,11.64
2022-09-20T01:26:08.581Z,11.63
2022-09-20T01:28:37.973Z,11.59
2022-09-20T01:31:31.708Z,11.62
2022-09-20T01:34:02.277Z,11.60
2022-09-20T01:36:30.349Z,11.62
2022-09-20T01:39:37.060Z,11.62
2022-09-20T01:42:11.035Z,11.59
2022-09-20T01:44:57.437Z,11.57
2022-09-20T01:47:32.575Z,11.51
2022-09-20T01:50:25.837Z,11.59
2022-09-20T01:52:57.185Z,11.46
2022-09-20T01:55:54.747Z,11.47
2022-09-20T01:58:44.527Z,11.46
2022-09-20T02:01:38.124Z,11.39
2022-09-20T02:04:35.560Z,11.39
2022-09-20T02:07:22.464Z,11.47
2022-09-20T02:10:12.952Z,11.40
2022-09-20T02:13:01.626Z,11.49
2022-09-20T02:15:36.968Z,11.41
2022-09-20T02:18:26.749Z,11.57
2022-09-20T02:21:16.115Z,11.57
2022-09-20T02:24:21.773Z,11.58
2022-09-20T02:26:58.139Z,11.58
2022-09-20T02:29:58.458Z,11.61
2022-09-20T02:32:26.845Z,11.57
2022-09-20T02:34:57.988Z,11.58
2022-09-20T02:37:38.859Z,11.63
2022-09-20T02:40:25.723Z,11.52
2022-09-20T02:43:10.320Z,11.64
2022-09-20T02:45:55.461Z,11.59
2022-09-20T02:48:40.471Z,11.59
2022-09-20T02:51:36.913Z,11.69
2022-09-20T02:54:25.776Z,11.69
2022-09-20T02:57:10.722Z,11.66
2022-09-20T02:59:47.969Z,11.70
2022-09-20T03:02:23.843Z,11.83
2022-09-20T03:05:19.290Z,11.74
2022-09-20T03:08:12.036Z,11.71
2022-09-20T03:11:02.728Z,11.58
2022-09-20T03:13:43.347Z,11.60
2022-09-20T03:16:46.518Z,11.60
2022-09-20T03:20:04.340Z,11.66
2022-09-20T03:22:58.712Z,11.66
2022-09-20T03:25:57.728Z,11.67
2022-09-20T03:28:37.368Z,11.72
2022-09-20T03:31:11.354Z,11.70
2022-09-20T03:34:06.179Z,11.73
2022-09-20T03:36:43.658Z,11.73
2022-09-20T03:39:29.644Z,11.75
2022-09-20T03:42:00.067Z,11.71
2022-09-20T03:44:55.685Z,11.79
2022-09-20T03:47:38.095Z,11.72
2022-09-20T03:50:32.913Z,11.73
2022-09-20T03:53:35.619Z,11.79
2022-09-20T03:56:28.040Z,11.81
2022-09-20T03:59:38.095Z,11.84
2022-09-20T04:02:18.426Z,11.79
2022-09-20T04:05:09.442Z,11.77
2022-09-20T04:08:26.893Z,11.79
2022-09-20T04:11:22.412Z,11.80
2022-09-20T04:14:11.796Z,11.76
2022-09-20T04:17:14.261Z,11.80
2022-09-20T04:20:21.727Z,11.85
2022-09-20T04:22:54.409Z,11.83
2022-09-20T04:25:34.692Z,11.82
2022-09-20T04:28:19.864Z,11.84
2022-09-20T04:30:52.514Z,11.84
2022-09-20T04:33:35.259Z,11.87
2022-09-20T04:36:32.074Z,11.86
2022-09-20T04:39:21.035Z,11.96
2022-09-20T04:42:30.611Z,11.95
2022-09-20T04:45:30.255Z,11.96
2022-09-20T04:48:19.902Z,11.93
2022-09-20T04:51:32.484Z,11.90
2022-09-20T04:54:09.258Z,11.80
2022-09-20T04:57:11.429Z,11.84
2022-09-20T04:59:41.582Z,11.80
2022-09-20T05:02:34.384Z,11.85
2022-09-20T05:05:07.219Z,11.86
2022-09-20T05:08:10.923Z,12.01
2022-09-20T05:10:50.940Z,11.93
2022-09-20T05:13:42.295Z,11.93
2022-09-20T05:16:29.976Z,12.00
2022-09-20T05:19:31.239Z,12.13
2022-09-20T05:22:31.565Z,12.33
2022-09-20T05:25:15.445Z,12.36
2022-09-20T05:28:02.013Z,12.48
2022-09-20T05:30:47.594Z,12.63
2022-09-20T05:33:46.384Z,12.74
2022-09-20T05:36:34.433Z,12.84
2022-09-20T05:39:53.738Z,13.03
2022-09-20T05:42:42.553Z,13.17
2022-09-20T05:45:38.339Z,13.29
2022-09-20T05:48:15.194Z,13.18
2022-09-20T05:51:17.227Z,13.29
2022-09-20T05:54:05.400Z,13.19
2022-09-20T05:56:54.703Z,13.28
2022-09-20T05:59:52.908Z,13.36
2022-09-20T06:02:39.608Z,13.42
2022-09-20T06:05:29.034Z,13.35
2022-09-20T06:08:17.245Z,13.33
2022-09-20T06:11:04.342Z,13.61
2022-09-20T06:13:52.436Z,13.73
2022-09-20T06:16:43.525Z,13.58
2022-09-20T06:19:37.118Z,13.35
2022-09-20T06:22:19.997Z,13.31
2022-09-20T06:25:15.912Z,13.47
2022-09-20T06:27:54.049Z,14.11
2022-09-20T06:30:33.653Z,15.12
2022-09-20T06:33:14.585Z,15.63
2022-09-20T06:35:53.815Z,15.55
2022-09-20T06:39:10.018Z,15.37
2022-09-20T06:41:39.932Z,15.18
2022-09-20T06:44:11.431Z,15.12
2022-09-20T06:46:45.136Z,15.44
2022-09-20T06:49:19.204Z,15.54
2022-09-20T06:51:47.579Z,15.39
2022-09-20T06:54:18.771Z,15.37
2022-09-20T06:56:49.559Z,15.55
2022-09-20T06:59:17.625Z,16.15
2022-09-20T07:01:46.091Z,16.66
2022-09-20T07:04:14.696Z,16.98
2022-09-20T07:06:43.177Z,17.48
2022-09-20T07:09:12.740Z,17.71
2022-09-20T07:11:41.062Z,18.13
2022-09-20T07:14:09.128Z,18.33
2022-09-20T07:16:37.479Z,18.11
2022-09-20T07:19:07.529Z,18.26
2022-09-20T07:21:35.599Z,18.50
2022-09-20T07:24:03.979Z,18.64
2022-09-20T07:26:33.732Z,18.19
2022-09-20T07:29:06.922Z,17.83
2022-09-20T07:31:34.918Z,17.30
2022-09-20T07:34:03.127Z,17.09
2022-09-20T07:36:31.301Z,16.78
2022-09-20T07:38:59.681Z,16.53
2022-09-20T07:41:30.594Z,16.44
2022-09-20T07:44:21.321Z,16.43
2022-09-20T07:46:54.412Z,16.26
2022-09-20T07:49:23.406Z,15.98
2022-09-20T07:51:52.334Z,15.80
2022-09-20T07:54:20.990Z,15.92
2022-09-20T07:56:50.179Z,16.24
2022-09-20T07:59:18.558Z,16.81
2022-09-20T08:01:47.141Z,17.44
2022-09-20T08:04:15.728Z,17.71
2022-09-20T08:06:45.435Z,18.55
2022-09-20T08:09:14.737Z,18.82
2022-09-20T08:11:44.139Z,18.78
2022-09-20T08:14:16.722Z,19.11
2022-09-20T08:16:47.811Z,19.57
2022-09-20T08:19:21.675Z,19.58
2022-09-20T08:21:56.086Z,19.13
2022-09-20T08:24:26.411Z,19.03
2022-09-20T08:26:54.791Z,18.95
2022-09-20T08:29:23.099Z,18.51
2022-09-20T08:31:58.544Z,18.02
2022-09-20T08:34:26.431Z,17.64
2022-09-20T08:36:56.724Z,17.32
2022-09-20T08:42:19.367Z,17.93
2022-09-20T08:44:58.555Z,17.96
2022-09-20T08:47:33.637Z,17.74
2022-09-20T08:50:09.548Z,17.75
2022-09-20T08:52:40.946Z,17.37
2022-09-20T08:55:19.559Z,17.12
2022-09-20T08:57:54.084Z,16.87
2022-09-20T09:00:26.868Z,16.58
2022-09-20T09:02:57.907Z,16.38
2022-09-20T09:05:49.529Z,16.35
2022-09-20T09:08:31.118Z,16.28
2022-09-20T09:11:05.169Z,16.21
2022-09-20T09:13:51.512Z,16.23
2022-09-20T09:16:24.675Z,16.29
2022-09-20T09:18:58.118Z,16.21
2022-09-20T09:21:29.475Z,16.09
2022-09-20T09:24:03.751Z,15.93
2022-09-20T09:26:41.175Z,15.71
2022-09-20T09:29:12.013Z,15.52
2022-09-20T09:31:40.632Z,15.52
2022-09-20T09:34:39.281Z,15.70
2022-09-20T09:37:28.727Z,15.59
2022-09-20T09:40:17.291Z,15.61
2022-09-20T09:42:50.604Z,15.60
2022-09-20T09:45:30.729Z,15.62
2022-09-20T09:48:00.992Z,15.59
2022-09-20T09:50:35.095Z,15.57
2022-09-20T09:53:06.443Z,15.54
2022-09-20T09:55:52.795Z,15.63
2022-09-20T09:58:44.921Z,15.65
2022-09-20T10:01:33.054Z,15.61
2022-09-20T10:04:38.776Z,15.75
2022-09-20T10:07:20.756Z,15.96
2022-09-20T10:10:07.790Z,16.30
2022-09-20T10:12:52.145Z,16.98
2022-09-20T10:15:33.472Z,17.26
2022-09-20T10:18:27.921Z,17.18
2022-09-20T10:21:20.155Z,16.92
2022-09-20T10:24:08.177Z,16.54
2022-09-20T10:26:45.381Z,16.25
2022-09-20T10:29:33.964Z,16.57
2022-09-20T10:32:59.974Z,19.00
2022-09-20T10:35:52.713Z,20.03
2022-09-20T10:39:10.117Z,19.48
2022-09-20T10:42:04.120Z,18.60
2022-09-20T10:44:57.285Z,18.71
2022-09-20T10:47:34.979Z,21.19
2022-09-20T10:50:49.027Z,21.91
2022-09-20T10:53:29.695Z,20.66
2022-09-20T10:56:10.377Z,19.57
2022-09-20T10:59:17.637Z,18.81
2022-09-20T11:02:18.123Z,18.01
2022-09-20T11:05:02.148Z,17.44
2022-09-20T11:08:08.397Z,17.10
2022-09-20T11:10:47.522Z,16.94
2022-09-20T11:13:39.867Z,19.34
2022-09-20T11:16:14.362Z,20.99
2022-09-20T11:18:55.747Z,20.42
2022-09-20T11:21:47.807Z,19.31
2022-09-20T11:24:32.161Z,18.33
2022-09-20T11:27:09.756Z,17.52
2022-09-20T11:29:44.687Z,17.04
2022-09-20T11:32:39.182Z,16.68
2022-09-20T11:35:11.554Z,16.50
2022-09-20T11:37:47.097Z,16.09
2022-09-20T11:40:33.396Z,16.02
2022-09-20T11:43:06.998Z,16.01
2022-09-20T11:45:40.442Z,16.02
2022-09-20T11:48:22.395Z,16.09
2022-09-20T11:51:05.929Z,16.15
2022-09-20T11:53:55.400Z,16.23
2022-09-20T11:56:31.359Z,16.36
2022-09-20T11:59:04.755Z,16.54
2022-09-20T12:01:37.032Z,16.64
2022-09-20T12:04:30.620Z,16.70
2022-09-20T12:07:08.943Z,17.17
2022-09-20T12:09:43.831Z,18.59
2022-09-20T12:12:39.859Z,18.53
2022-09-20T12:15:40.708Z,17.76
2022-09-20T12:18:46.463Z,17.35
2022-09-20T12:21:22.316Z,16.89
2022-09-20T12:23:54.169Z,16.59
2022-09-20T12:26:23.174Z,16.81
2022-09-20T12:29:03.119Z,16.83
2022-09-20T12:31:32.605Z,16.62
2022-09-20T12:34:02.541Z,16.66
2022-09-20T12:36:36.554Z,16.71
2022-09-20T12:39:29.729Z,17.15
2022-09-20T12:42:02.798Z,19.24
2022-09-20T12:44:34.037Z,19.33
2022-09-20T12:47:08.844Z,18.53
2022-09-20T12:50:00.085Z,17.58
2022-09-20T12:52:47.208Z,17.11
2022-09-20T12:55:27.958Z,16.79
2022-09-20T12:58:07.313Z,16.61
2022-09-20T13:00:56.332Z,16.35
2022-09-20T13:03:28.941Z,16.02
2022-09-20T13:06:06.542Z,15.85
2022-09-20T13:09:04.832Z,15.91
2022-09-20T13:11:52.694Z,15.92
2022-09-20T13:14:33.006Z,15.90
2022-09-20T13:17:16.149Z,15.74
2022-09-20T13:19:50.391Z,15.57
2022-09-20T13:22:24.478Z,15.43
2022-09-20T13:25:03.691Z,15.37
2022-09-20T13:28:02.493Z,15.39
2022-09-20T13:30:33.628Z,15.56
2022-09-20T13:33:25.946Z,15.33
2022-09-20T13:35:58.867Z,15.17
2022-09-20T13:38:32.165Z,15.05
2022-09-20T13:41:07.508Z,14.96
2022-09-20T13:43:43.877Z,14.95
2022-09-20T13:46:33.655Z,15.02
2022-09-20T13:49:21.288Z,15.02
2022-09-20T13:51:50.790Z,15.06
2022-09-20T13:54:30.126Z,15.14
2022-09-20T13:57:03.498Z,15.05
2022-09-20T13:59:45.631Z,15.06
2022-09-20T14:02:24.670Z,15.08
2022-09-20T14:04:56.511Z,15.08
2022-09-20T14:07:28.553Z,15.19
2022-09-20T14:09:59.210Z,15.20
2022-09-20T14:12:28.296Z,15.16
2022-09-20T14:14:56.861Z,15.08
2022-09-20T14:17:26.335Z,15.01
2022-09-20T14:19:56.178Z,14.96
2022-09-20T14:22:27.659Z,14.79
2022-09-20T14:25:04.535Z,14.73
2022-09-20T14:27:33.223Z,14.61
2022-09-20T14:30:04.058Z,14.45
2022-09-20T14:32:40.203Z,14.43
2022-09-20T14:35:16.895Z,14.39
2022-09-20T14:38:03.089Z,14.36
2022-09-20T14:40:41.045Z,14.27
2022-09-20T14:43:31.875Z,14.31
2022-09-20T14:46:03.607Z,14.35
2022-09-20T14:48:38.384Z,14.32
2022-09-20T14:51:19.251Z,14.31
2022-09-20T14:53:51.526Z,14.28
2022-09-20T14:56:38.615Z,14.40
2022-09-20T14:59:14.361Z,14.37
2022-09-20T15:01:46.461Z,14.29
2022-09-20T15:04:27.744Z,14.41
2022-09-20T15:07:00.731Z,14.34
2022-09-20T15:09:30.440Z,14.27
2022-09-20T15:12:06.192Z,14.26
2022-09-20T15:14:37.671Z,14.24
2022-09-20T15:17:07.351Z,14.21
2022-09-20T15:19:35.937Z,14.26
2022-09-20T15:22:04.435Z,14.24
2022-09-20T15:24:32.898Z,14.23
2022-09-20T15:27:01.483Z,14.19
2022-09-20T15:29:29.555Z,14.17
2022-09-20T15:31:57.789Z,14.12
2022-09-20T15:34:26.621Z,14.06
2022-09-20T15:36:55.613Z,13.97
2022-09-20T15:39:25.022Z,13.89
2022-09-20T15:41:53.906Z,13.80
2022-09-20T15:44:22.489Z,13.77
2022-09-20T15:46:53.940Z,13.71
2022-09-20T15:49:24.676Z,13.65
2022-09-20T15:51:53.463Z,13.59
2022-09-20T15:54:26.970Z,13.50
2022-09-20T15:56:55.604Z,13.49
2022-09-20T15:59:24.018Z,13.43
2022-09-20T16:01:52.133Z,13.38
2022-09-20T16:04:20.882Z,13.29
2022-09-20T16:06:50.905Z,13.22
2022-09-20T16:09:20.206Z,13.17
2022-09-20T16:11:48.788Z,13.13
2022-09-20T16:14:16.941Z,13.08
2022-09-20T16:16:44.921Z,13.03
2022-09-20T16:19:20.540Z,13.04
2022-09-20T16:21:57.742Z,12.98
2022-09-20T16:24:34.776Z,12.93
2022-09-20T16:27:04.732Z,12.97
2022-09-20T16:30:08.165Z,12.98
2022-09-20T16:32:36.952Z,12.90
2022-09-20T16:35:09.631Z,12.80
2022-09-20T16:37:40.980Z,12.79
2022-09-20T16:40:11.439Z,12.69
2022-09-20T16:42:40.192Z,12.69
2022-09-20T16:45:15.231Z,12.68
2022-09-20T16:47:43.814Z,12.68
2022-09-20T16:50:12.296Z,12.66
2022-09-20T16:53:10.418Z,12.62
2022-09-20T16:55:45.611Z,12.60
2022-09-20T16:58:23.516Z,12.58
2022-09-20T17:01:35.312Z,12.49
2022-09-20T17:04:46.892Z,12.52
2022-09-20T17:07:18.659Z,12.45
2022-09-20T17:10:10.489Z,12.47
2022-09-20T17:12:53.616Z,12.47
2022-09-20T17:16:26.088Z,12.42
2022-09-20T17:22:26.957Z,12.34
2022-09-20T17:28:13.992Z,12.30
2022-09-20T17:30:47.800Z,12.27
2022-09-20T17:33:51.815Z,12.20
2022-09-20T17:36:25.517Z,12.21
2022-09-20T17:39:01.646Z,12.19
2022-09-20T17:41:33.036Z,12.17
2022-09-20T17:44:02.869Z,12.13
2022-09-20T17:46:34.219Z,12.14
2022-09-20T17:49:07.645Z,12.13
2022-09-20T17:51:48.254Z,12.07
2022-09-20T17:54:17.349Z,12.10
2022-09-20T17:56:48.286Z,12.07
2022-09-20T17:59:18.204Z,12.04
2022-09-20T18:01:50.060Z,12.03
2022-09-20T18:04:21.113Z,12.00
2022-09-20T18:06:51.836Z,11.96
2022-09-20T18:09:25.848Z,11.97
2022-09-20T18:11:56.176Z,11.95
2022-09-20T18:14:27.880Z,11.91
2022-09-20T18:17:01.454Z,11.93
2022-09-20T18:19:33.970Z,11.93
2022-09-20T18:22:03.511Z,11.89
2022-09-20T18:24:32.151Z,11.82
2022-09-20T18:27:04.878Z,11.83
2022-09-20T18:29:36.995Z,11.81
2022-09-20T18:32:07.782Z,11.75
2022-09-20T18:34:36.672Z,11.75
2022-09-20T18:37:11.120Z,11.72
2022-09-20T18:39:44.693Z,11.83
2022-09-20T18:42:35.108Z,11.72
2022-09-20T18:45:08.688Z,11.67
2022-09-20T18:47:37.274Z,11.61
2022-09-20T18:50:06.778Z,11.65
2022-09-20T18:52:36.182Z,11.62
2022-09-20T18:55:07.428Z,11.61
2022-09-20T18:57:37.034Z,11.58
2022-09-20T19:00:06.335Z,11.50
2022-09-20T19:02:51.100Z,11.52
2022-09-20T19:05:39.239Z,11.51
2022-09-20T19:08:45.302Z,11.51
2022-09-20T19:11:33.535Z,11.40
2022-09-20T19:14:08.003Z,11.53
2022-09-20T19:16:41.671Z,11.34
2022-09-20T19:19:09.947Z,11.27
2022-09-20T19:21:51.331Z,11.34
2022-09-20T19:24:46.642Z,11.31
2022-09-20T19:27:15.637Z,11.33
2022-09-20T19:29:44.730Z,11.35
2022-09-20T19:32:21.508Z,11.37
2022-09-20T19:34:52.532Z,11.38
2022-09-20T19:37:21.030Z,11.35
2022-09-20T19:40:15.480Z,11.35
2022-09-20T19:43:03.234Z,11.33
2022-09-20T19:45:39.581Z,11.24
2022-09-20T19:48:18.545Z,11.19
2022-09-20T19:50:51.429Z,11.12
2022-09-20T19:53:22.679Z,11.12
2022-09-20T19:55:58.418Z,11.07
2022-09-20T19:58:27.011Z,11.10
2022-09-20T20:00:55.799Z,11.12
2022-09-20T20:03:26.431Z,11.08
2022-09-20T20:06:07.650Z,11.08
2022-09-20T20:08:36.401Z,11.08
2022-09-20T20:11:15.633Z,11.09
2022-09-20T20:14:03.672Z,11.10
2022-09-20T20:17:10.445Z,11.15
2022-09-20T20:19:47.535Z,11.11
2022-09-20T20:22:41.210Z,11.12
2022-09-20T20:25:37.745Z,11.13
2022-09-20T20:28:06.329Z,11.05
2022-09-20T20:30:35.119Z,11.03
2022-09-20T20:33:05.544Z,11.03
2022-09-20T20:35:33.622Z,11.01
2022-09-20T20:38:06.196Z,11.07
2022-09-20T20:40:34.845Z,11.10
2022-09-20T20:43:03.673Z,11.07
2022-09-20T20:45:32.665Z,11.09
2022-09-20T20:48:01.450Z,11.04
2022-09-20T20:50:30.033Z,11.08
2022-09-20T20:52:58.821Z,11.08
2022-09-20T20:55:27.508Z,11.04
2022-09-20T20:57:59.881Z,11.01
2022-09-20T21:00:28.975Z,10.93
2022-09-20T21:03:01.635Z,10.95
2022-09-20T21:05:30.955Z,10.91
2022-09-20T21:07:59.437Z,10.89
2022-09-20T21:10:27.816Z,10.89
2022-09-20T21:12:56.297Z,10.86
2022-09-20T21:15:24.778Z,10.83
2022-09-20T21:17:54.080Z,10.83
2022-09-20T21:20:22.864Z,10.86
2022-09-20T21:22:51.451Z,10.85
2022-09-20T21:25:19.899Z,10.81
2022-09-20T21:27:48.414Z,10.88
2022-09-20T21:30:17.100Z,10.83
2022-09-20T21:32:45.786Z,10.80
2022-09-20T21:35:14.369Z,10.77
2022-09-20T21:37:45.514Z,10.75
2022-09-20T21:40:14.002Z,10.72
2022-09-20T21:42:42.784Z,10.68
2022-09-20T21:45:11.472Z,10.67
2022-09-20T21:47:40.053Z,10.64
2022-09-20T21:50:09.047Z,10.65
2022-09-20T21:52:37.937Z,10.59
2022-09-20T21:55:07.343Z,10.53
2022-09-20T21:57:35.926Z,10.51
2022-09-20T22:00:05.697Z,10.46
2022-09-20T22:02:41.002Z,10.46
2022-09-20T22:05:09.662Z,10.39
2022-09-20T22:07:38.246Z,10.44
2022-09-20T22:10:07.340Z,10.39
2022-09-20T22:12:35.927Z,10.36
2022-09-20T22:15:04.836Z,10.32
2022-09-20T22:17:33.290Z,10.32
2022-09-20T22:20:01.770Z,10.30
2022-09-20T22:22:31.386Z,10.27
2022-09-20T22:24:59.879Z,10.31
2022-09-20T22:27:28.137Z,10.30
2022-09-20T22:30:00.419Z,10.19
2022-09-20T22:32:32.574Z,10.24
2022-09-20T22:35:00.698Z,10.23
2022-09-20T22:37:29.534Z,10.20
2022-09-20T22:39:57.853Z,10.20
2022-09-20T22:42:26.100Z,10.17
2022-09-20T22:44:54.578Z,10.15
2022-09-20T22:47:23.056Z,10.08
2022-09-20T22:49:51.331Z,10.11
2022-09-20T22:52:19.293Z,10.09
2022-09-20T22:54:47.890Z,10.07
2022-09-20T22:57:16.561Z,10.07
2022-09-20T22:59:45.057Z,10.03
2022-09-20T23:02:13.639Z,10.02
2022-09-20T23:04:42.115Z,10.01
2022-09-20T23:07:10.587Z,9.98
2022-09-20T23:09:38.879Z,9.97
2022-09-20T23:12:07.455Z,9.93
2022-09-20T23:14:35.842Z,9.93
2022-09-20T23:17:04.211Z,9.92
2022-09-20T23:19:32.498Z,9.92
2022-09-20T23:22:00.876Z,9.91
2022-09-20T23:24:29.050Z,9.90
2022-09-20T23:26:57.326Z,9.90
2022-09-20T23:29:26.423Z,9.90
2022-09-20T23:31:54.988Z,9.90
2022-09-20T23:34:23.467Z,9.88
2022-09-20T23:36:51.745Z,9.91
2022-09-20T23:39:20.244Z,9.88
2022-09-20T23:41:51.073Z,9.90
2022-09-20T23:44:20.074Z,9.86
2022-09-20T23:46:48.432Z,9.83
2022-09-20T23:49:16.832Z,9.87
2022-09-20T23:51:45.083Z,9.89
2022-09-20T23:54:13.360Z,9.86
2022-09-20T23:56:43.098Z,9.86
2022-09-20T23:59:11.371Z,9.89
